Millinocket, Maine
Current Conditions -  °F | °C
As of 3:53 AM on Friday 21 Nov 2014 (Local Time) from KMLT Reporting Station
Clear Clear  
Wind Chill: 22°   Ceiling: Unl
Heat Index: 22°   Visibility: 10mi
Dew Point: 11°   Wind: 0mph
Humidity: 63%   Direction: NA
Pressure: 29.75"   Gusts: NA
Location:  45.66°N, 68.71°W
Report Text: KMLT 210853Z AUTO 00000KT 10SM CLR M06/M12 A2975 RMK AO2 SLP085 T10561117 53001
Loading
Personal Weather Stations






























Interactive Weather Map New forecast layout! Learn more

10-Day Weather Forecast

Advertisements
Track Severe Weather on mobile